createdAt,value
2023-04-28T00:02:22.230Z,101521.28
2023-04-28T00:04:59.551Z,101525.06
2023-04-28T00:07:35.164Z,101532.31
2023-04-28T00:10:02.251Z,101529.84
2023-04-28T00:12:31.535Z,101534.53
2023-04-28T00:15:15.740Z,101531.53
2023-04-28T00:17:51.505Z,101519.03
2023-04-28T00:20:27.459Z,101521.78
2023-04-28T00:22:54.398Z,101514.84
2023-04-28T00:25:23.985Z,101514.78
2023-04-28T00:27:51.799Z,101508.97
2023-04-28T00:30:21.826Z,101521.97
2023-04-28T00:32:48.676Z,101514.91
2023-04-28T00:35:15.783Z,101517.81
2023-04-28T00:37:42.859Z,101516.66
2023-04-28T00:40:10.545Z,101516.72
2023-04-28T00:42:37.784Z,101510.13
2023-04-28T00:45:06.223Z,101503.44
2023-04-28T00:47:38.210Z,101499.03
2023-04-28T00:50:13.523Z,101496.31
2023-04-28T00:52:40.571Z,101496.25
2023-04-28T00:55:09.544Z,101491.44
2023-04-28T00:57:39.529Z,101490.56
2023-04-28T01:00:07.458Z,101493.38
2023-04-28T01:02:36.930Z,101486.41
2023-04-28T01:05:04.232Z,101485.50
2023-04-28T01:07:31.493Z,101481.78
2023-04-28T01:09:58.502Z,101484.50
2023-04-28T01:12:26.058Z,101481.06
2023-04-28T01:14:53.159Z,101475.78
2023-04-28T01:17:20.459Z,101472.25
2023-04-28T01:19:47.400Z,101466.81
2023-04-28T01:22:16.530Z,101470.66
2023-04-28T01:24:50.788Z,101474.13
2023-04-28T01:27:25.301Z,101472.44
2023-04-28T01:29:52.666Z,101468.84
2023-04-28T01:32:19.658Z,101484.81
2023-04-28T01:34:49.058Z,101491.81
2023-04-28T01:37:17.077Z,101484.66
2023-04-28T01:39:48.900Z,101489.06
2023-04-28T01:42:15.728Z,101483.56
2023-04-28T01:44:42.883Z,101472.84
2023-04-28T01:47:09.713Z,101468.38
2023-04-28T01:49:39.648Z,101478.91
2023-04-28T01:52:07.166Z,101478.69
2023-04-28T01:54:42.477Z,101497.63
2023-04-28T01:57:21.225Z,101485.03
2023-04-28T01:59:50.270Z,101494.94
2023-04-28T02:02:17.373Z,101482.88
2023-04-28T02:04:44.260Z,101484.75
2023-04-28T02:07:11.072Z,101491.94
2023-04-28T02:09:38.059Z,101496.50
2023-04-28T02:12:05.093Z,101497.00
2023-04-28T02:14:42.373Z,101497.00
2023-04-28T02:17:10.376Z,101494.84
2023-04-28T02:19:38.882Z,101497.22
2023-04-28T02:22:06.067Z,101507.38
2023-04-28T02:24:36.437Z,101510.84
2023-04-28T02:27:05.071Z,101517.81
2023-04-28T02:29:32.300Z,101517.97
2023-04-28T02:31:59.460Z,101520.75
2023-04-28T02:34:26.414Z,101525.09
2023-04-28T02:36:54.603Z,101524.97
2023-04-28T02:39:28.526Z,101529.34
2023-04-28T02:41:55.842Z,101533.63
2023-04-28T02:44:23.853Z,101529.97
2023-04-28T02:46:50.985Z,101526.94
2023-04-28T02:49:19.804Z,101528.53
2023-04-28T02:51:47.735Z,101519.19
2023-04-28T02:54:16.924Z,101522.25
2023-04-28T02:56:43.910Z,101504.72
2023-04-28T02:59:11.046Z,101511.94
2023-04-28T03:01:37.937Z,101507.63
2023-04-28T03:04:05.001Z,101511.19
2023-04-28T03:06:32.083Z,101511.94
2023-04-28T03:08:59.055Z,101517.97
2023-04-28T03:11:33.913Z,101514.00
2023-04-28T03:14:01.103Z,101513.16
2023-04-28T03:16:28.011Z,101506.16
2023-04-28T03:18:54.776Z,101510.06
2023-04-28T03:21:21.658Z,101501.59
2023-04-28T03:23:53.546Z,101506.25
2023-04-28T03:26:23.419Z,101508.88
2023-04-28T03:28:50.224Z,101513.13
2023-04-28T03:31:18.156Z,101522.13
2023-04-28T03:33:47.371Z,101522.28
2023-04-28T03:36:14.291Z,101526.28
2023-04-28T03:38:41.937Z,101529.72
2023-04-28T03:41:08.941Z,101531.13
2023-04-28T03:43:37.701Z,101534.56
2023-04-28T03:46:05.168Z,101536.78
2023-04-28T03:48:32.064Z,101533.97
2023-04-28T03:50:59.020Z,101523.22
2023-04-28T03:53:25.968Z,101523.47
2023-04-28T03:55:53.007Z,101534.88
2023-04-28T03:58:20.149Z,101532.53
2023-04-28T04:00:47.102Z,101537.56
2023-04-28T04:03:17.218Z,101538.66
2023-04-28T04:05:44.588Z,101541.38
2023-04-28T04:08:12.180Z,101532.59
2023-04-28T04:10:39.136Z,101529.03
2023-04-28T04:13:06.046Z,101531.41
2023-04-28T04:15:33.029Z,101534.56
2023-04-28T04:18:00.227Z,101530.25
2023-04-28T04:20:27.084Z,101531.25
2023-04-28T04:22:53.968Z,101515.78
2023-04-28T04:25:29.111Z,101520.69
2023-04-28T04:27:56.313Z,101520.31
2023-04-28T04:30:24.134Z,101531.84
2023-04-28T04:32:51.615Z,101532.28
2023-04-28T04:35:20.493Z,101540.84
2023-04-28T04:37:47.442Z,101538.53
2023-04-28T04:40:17.462Z,101538.47
2023-04-28T04:42:44.400Z,101532.78
2023-04-28T04:45:11.415Z,101542.16
2023-04-28T04:47:39.138Z,101525.28
2023-04-28T04:50:06.842Z,101528.00
2023-04-28T04:52:33.814Z,101536.59
2023-04-28T04:55:02.162Z,101537.16
2023-04-28T04:57:29.088Z,101546.22
2023-04-28T04:59:55.915Z,101547.59
2023-04-28T05:02:25.880Z,101553.94
2023-04-28T05:04:53.592Z,101559.72
2023-04-28T05:07:22.799Z,101560.84
2023-04-28T05:09:49.668Z,101561.25
2023-04-28T05:12:16.566Z,101562.41
2023-04-28T05:14:43.487Z,101557.13
2023-04-28T05:17:13.473Z,101561.00
2023-04-28T05:19:40.281Z,101552.13
2023-04-28T05:22:07.585Z,101559.66
2023-04-28T05:24:40.898Z,101551.09
2023-04-28T05:27:09.974Z,101552.47
2023-04-28T05:29:37.634Z,101550.88
2023-04-28T05:32:04.816Z,101558.81
2023-04-28T05:34:31.818Z,101567.06
2023-04-28T05:36:58.618Z,101560.34
2023-04-28T05:39:25.589Z,101568.84
2023-04-28T05:41:52.360Z,101573.38
2023-04-28T05:44:19.299Z,101575.22
2023-04-28T05:46:46.399Z,101566.56
2023-04-28T05:49:13.499Z,101577.53
2023-04-28T05:51:44.268Z,101571.81
2023-04-28T05:54:11.364Z,101567.44
2023-04-28T05:56:38.256Z,101570.41
2023-04-28T05:59:10.094Z,101577.94
2023-04-28T06:01:40.318Z,101582.03
2023-04-28T06:04:07.762Z,101583.69
2023-04-28T06:06:35.069Z,101576.97
2023-04-28T06:09:03.170Z,101568.31
2023-04-28T06:11:36.078Z,101564.88
2023-04-28T06:14:04.162Z,101565.97
2023-04-28T06:16:31.007Z,101562.75
2023-04-28T06:18:58.157Z,101564.19
2023-04-28T06:21:25.518Z,101575.34
2023-04-28T06:23:52.514Z,101579.19
2023-04-28T06:26:19.398Z,101575.91
2023-04-28T06:28:46.546Z,101568.94
2023-04-28T06:31:16.682Z,101566.00
2023-04-28T06:33:43.547Z,101562.84
2023-04-28T06:36:14.259Z,101564.59
2023-04-28T06:38:44.233Z,101560.78
2023-04-28T06:41:11.968Z,101552.03
2023-04-28T06:43:38.997Z,101541.44
2023-04-28T06:46:06.110Z,101537.53
2023-04-28T06:48:34.198Z,101540.44
2023-04-28T06:51:09.952Z,101546.59
2023-04-28T06:53:37.636Z,101542.53
2023-04-28T06:56:04.657Z,101545.41
2023-04-28T06:58:31.850Z,101554.13
2023-04-28T07:00:58.803Z,101562.13
2023-04-28T07:03:27.084Z,101555.34
2023-04-28T07:05:54.312Z,101551.81
2023-04-28T07:08:21.603Z,101557.03
2023-04-28T07:10:48.452Z,101549.06
2023-04-28T07:13:15.566Z,101556.44
2023-04-28T07:15:42.513Z,101554.66
2023-04-28T07:18:14.070Z,101549.72
2023-04-28T07:20:40.923Z,101550.53
2023-04-28T07:23:07.752Z,101552.94
2023-04-28T07:25:35.493Z,101559.38
2023-04-28T07:28:04.097Z,101557.94
2023-04-28T07:30:30.865Z,101560.59
2023-04-28T07:33:01.314Z,101554.47
2023-04-28T07:35:28.595Z,101551.31
2023-04-28T07:37:56.079Z,101552.19
2023-04-28T07:40:25.893Z,101559.31
2023-04-28T07:42:53.286Z,101553.97
2023-04-28T07:45:20.862Z,101540.59
2023-04-28T07:47:47.979Z,101542.00
2023-04-28T07:50:15.389Z,101542.88
2023-04-28T07:52:42.254Z,101543.75
2023-04-28T07:55:09.440Z,101540.66
2023-04-28T07:57:36.740Z,101549.50
2023-04-28T08:00:04.383Z,101550.28
2023-04-28T08:02:31.550Z,101555.78
2023-04-28T08:04:58.617Z,101552.13
2023-04-28T08:07:29.194Z,101543.34
2023-04-28T08:09:56.421Z,101543.00
2023-04-28T08:12:23.308Z,101550.38
2023-04-28T08:14:51.869Z,101554.28
2023-04-28T08:17:18.881Z,101558.81
2023-04-28T08:19:46.660Z,101552.16
2023-04-28T08:22:13.960Z,101558.75
2023-04-28T08:24:40.978Z,101558.91
2023-04-28T08:27:08.022Z,101569.16
2023-04-28T08:29:35.105Z,101561.16
2023-04-28T08:32:02.502Z,101548.50
2023-04-28T08:34:29.791Z,101549.16
2023-04-28T08:36:56.797Z,101542.00
2023-04-28T08:39:23.994Z,101544.84
2023-04-28T08:41:50.997Z,101539.13
2023-04-28T08:44:18.845Z,101543.91
2023-04-28T08:46:50.313Z,101546.50
2023-04-28T08:49:27.785Z,101543.63
2023-04-28T08:52:00.905Z,101537.78
2023-04-28T08:54:39.157Z,101540.06
2023-04-28T08:57:09.992Z,101541.53
2023-04-28T08:59:43.045Z,101538.06
2023-04-28T09:02:13.158Z,101534.97
2023-04-28T09:04:42.658Z,101533.94
2023-04-28T09:07:15.378Z,101526.16
2023-04-28T09:09:42.271Z,101524.66
2023-04-28T09:12:09.381Z,101522.50
2023-04-28T09:14:37.764Z,101526.44
2023-04-28T09:17:16.317Z,101532.09
2023-04-28T09:19:46.585Z,101527.06
2023-04-28T09:22:26.088Z,101526.53
2023-04-28T09:24:57.324Z,101525.03
2023-04-28T09:27:28.709Z,101532.66
2023-04-28T09:29:59.591Z,101516.97
2023-04-28T09:32:28.513Z,101519.69
2023-04-28T09:34:59.999Z,101519.84
2023-04-28T09:37:30.930Z,101518.59
2023-04-28T09:40:10.117Z,101507.97
2023-04-28T09:42:41.332Z,101521.41
2023-04-28T09:45:09.595Z,101517.31
2023-04-28T09:47:39.421Z,101508.78
2023-04-28T09:50:14.781Z,101505.00
2023-04-28T09:52:44.542Z,101514.09
2023-04-28T09:55:16.483Z,101517.03
2023-04-28T09:57:48.661Z,101513.31
2023-04-28T10:00:18.141Z,101511.59
2023-04-28T10:02:52.021Z,101498.13
2023-04-28T10:05:22.002Z,101492.75
2023-04-28T10:07:50.181Z,101486.47
2023-04-28T10:10:21.539Z,101473.88
2023-04-28T10:12:48.828Z,101487.00
2023-04-28T10:15:16.825Z,101482.09
2023-04-28T10:17:44.864Z,101484.56
2023-04-28T10:20:12.765Z,101473.28
2023-04-28T10:22:45.789Z,101481.34
2023-04-28T10:25:12.735Z,101477.25
2023-04-28T10:27:45.075Z,101480.66
2023-04-28T10:30:26.313Z,101472.88
2023-04-28T10:33:15.339Z,101469.75
2023-04-28T10:35:45.427Z,101460.84
2023-04-28T10:38:23.472Z,101469.88
2023-04-28T10:40:56.136Z,101456.94
2023-04-28T10:43:26.461Z,101460.34
2023-04-28T10:45:56.420Z,101452.03
2023-04-28T10:48:47.953Z,101448.81
2023-04-28T10:51:15.502Z,101445.97
2023-04-28T10:53:45.731Z,101436.00
2023-04-28T10:56:27.430Z,101446.78
2023-04-28T10:59:01.316Z,101435.69
2023-04-28T11:01:30.380Z,101433.66
2023-04-28T11:04:18.988Z,101428.75
2023-04-28T11:06:48.947Z,101436.34
2023-04-28T11:09:15.993Z,101439.22
2023-04-28T11:12:06.249Z,101428.47
2023-04-28T11:14:35.373Z,101432.22
2023-04-28T11:17:11.566Z,101426.34
2023-04-28T11:19:44.339Z,101423.72
2023-04-28T11:22:20.363Z,101424.53
2023-04-28T11:25:04.034Z,101421.28
2023-04-28T11:27:33.594Z,101419.94
2023-04-28T11:30:02.095Z,101414.63
2023-04-28T11:32:29.077Z,101414.13
2023-04-28T11:34:59.499Z,101414.28
2023-04-28T11:37:27.448Z,101411.34
2023-04-28T11:39:56.451Z,101410.06
2023-04-28T11:42:26.148Z,101410.50
2023-04-28T11:44:54.689Z,101410.53
2023-04-28T11:47:38.644Z,101411.13
2023-04-28T11:50:12.121Z,101408.13
2023-04-28T11:52:50.972Z,101399.25
2023-04-28T11:55:19.444Z,101403.47
2023-04-28T11:57:46.638Z,101403.00
2023-04-28T12:00:15.783Z,101408.97
2023-04-28T12:02:44.522Z,101393.75
2023-04-28T12:05:11.882Z,101382.47
2023-04-28T12:07:45.963Z,101386.47
2023-04-28T12:10:17.490Z,101394.53
2023-04-28T12:12:51.985Z,101389.19
2023-04-28T12:15:23.440Z,101376.78
2023-04-28T12:17:51.960Z,101377.03
2023-04-28T12:20:38.382Z,101379.81
2023-04-28T12:23:07.271Z,101383.91
2023-04-28T12:25:35.612Z,101377.47
2023-04-28T12:28:05.034Z,101378.88
2023-04-28T12:30:34.598Z,101366.66
2023-04-28T12:33:10.257Z,101361.19
2023-04-28T12:35:37.733Z,101368.28
2023-04-28T12:38:04.733Z,101368.13
2023-04-28T12:40:34.070Z,101361.88
2023-04-28T12:43:01.077Z,101354.31
2023-04-28T12:45:28.612Z,101351.44
2023-04-28T12:47:56.293Z,101340.78
2023-04-28T12:50:23.359Z,101336.03
2023-04-28T12:52:59.153Z,101338.53
2023-04-28T12:55:29.959Z,101323.38
2023-04-28T12:58:07.172Z,101328.81
2023-04-28T13:00:35.835Z,101315.13
2023-04-28T13:03:02.925Z,101307.97
2023-04-28T13:05:35.413Z,101308.91
2023-04-28T13:08:04.737Z,101301.81
2023-04-28T13:10:31.815Z,101299.09
2023-04-28T13:13:01.280Z,101301.66
2023-04-28T13:15:28.549Z,101303.59
2023-04-28T13:17:55.557Z,101300.22
2023-04-28T13:20:30.867Z,101302.56
2023-04-28T13:23:02.211Z,101302.13
2023-04-28T13:25:29.127Z,101299.19
2023-04-28T13:27:55.961Z,101297.31
2023-04-28T13:30:30.579Z,101296.63
2023-04-28T13:32:58.173Z,101290.63
2023-04-28T13:35:25.346Z,101291.91
2023-04-28T13:37:56.260Z,101283.25
2023-04-28T13:40:23.380Z,101281.22
2023-04-28T13:42:50.341Z,101275.53
2023-04-28T13:45:18.016Z,101270.25
2023-04-28T13:47:45.542Z,101277.75
2023-04-28T13:50:12.453Z,101272.53
2023-04-28T13:52:39.712Z,101260.81
2023-04-28T13:55:07.254Z,101256.53
2023-04-28T13:57:39.257Z,101249.28
2023-04-28T14:00:07.385Z,101241.69
2023-04-28T14:02:37.848Z,101242.22
2023-04-28T14:05:05.070Z,101232.94
2023-04-28T14:07:32.046Z,101224.09
2023-04-28T14:10:07.346Z,101225.88
2023-04-28T14:12:38.549Z,101218.94
2023-04-28T14:15:07.683Z,101210.06
2023-04-28T14:17:35.060Z,101216.03
2023-04-28T14:20:03.387Z,101219.09
2023-04-28T14:22:32.522Z,101225.97
2023-04-28T14:24:59.484Z,101223.38
2023-04-28T14:27:41.256Z,101218.75
2023-04-28T14:30:09.152Z,101223.09
2023-04-28T14:32:40.109Z,101219.78
2023-04-28T14:35:07.446Z,101222.59
2023-04-28T14:37:35.862Z,101224.59
2023-04-28T14:40:03.503Z,101224.84
2023-04-28T14:42:31.794Z,101224.50
2023-04-28T14:44:59.788Z,101210.38
2023-04-28T14:47:27.612Z,101213.31
2023-04-28T14:49:55.457Z,101211.94
2023-04-28T14:52:25.668Z,101202.94
2023-04-28T14:54:57.736Z,101198.16
2023-04-28T14:57:26.346Z,101198.13
2023-04-28T14:59:55.113Z,101194.19
2023-04-28T15:02:29.912Z,101194.88
2023-04-28T15:04:58.454Z,101199.94
2023-04-28T15:07:31.524Z,101205.09
2023-04-28T15:10:01.253Z,101200.53
2023-04-28T15:12:30.835Z,101200.03
2023-04-28T15:14:58.546Z,101193.75
2023-04-28T15:17:26.015Z,101193.94
2023-04-28T15:19:53.298Z,101182.91
2023-04-28T15:22:20.282Z,101186.25
2023-04-28T15:24:47.428Z,101185.31
2023-04-28T15:27:14.612Z,101172.56
2023-04-28T15:29:42.182Z,101166.44
2023-04-28T15:32:09.777Z,101155.06
2023-04-28T15:34:37.035Z,101142.81
2023-04-28T15:37:28.461Z,101153.84
2023-04-28T15:39:57.035Z,101143.50
2023-04-28T15:42:24.134Z,101137.31
2023-04-28T15:44:51.948Z,101128.84
2023-04-28T15:47:19.928Z,101127.41
2023-04-28T15:49:47.085Z,101128.97
2023-04-28T15:52:14.300Z,101124.19
2023-04-28T15:54:46.167Z,101128.66
2023-04-28T15:57:13.228Z,101136.19
2023-04-28T15:59:44.282Z,101145.31
2023-04-28T16:02:11.375Z,101143.00
2023-04-28T16:04:39.038Z,101152.38
2023-04-28T16:07:08.016Z,101154.63
2023-04-28T16:09:35.488Z,101153.84
2023-04-28T16:12:05.362Z,101155.06
2023-04-28T16:17:01.665Z,101155.25
2023-04-28T16:19:36.868Z,101145.06
2023-04-28T16:22:03.855Z,101139.56
2023-04-28T16:24:32.306Z,101139.09
2023-04-28T16:27:24.313Z,101142.69
2023-04-28T16:29:52.966Z,101127.72
2023-04-28T16:32:23.326Z,101135.19
2023-04-28T16:34:50.457Z,101136.72
2023-04-28T16:37:17.847Z,101130.28
2023-04-28T16:39:45.809Z,101134.66
2023-04-28T16:42:17.229Z,101133.56
2023-04-28T16:44:44.701Z,101133.06
2023-04-28T16:47:18.044Z,101145.25
2023-04-28T16:49:45.709Z,101141.09
2023-04-28T16:52:33.672Z,101141.91
2023-04-28T16:55:09.987Z,101141.59
2023-04-28T16:57:43.323Z,101142.25
2023-04-28T17:02:55.623Z,101129.09
2023-04-28T17:05:22.971Z,101138.03
2023-04-28T17:07:50.978Z,101124.50
2023-04-28T17:10:19.247Z,101124.34
2023-04-28T17:12:46.277Z,101126.56
2023-04-28T17:15:19.894Z,101124.34
2023-04-28T17:17:51.219Z,101132.16
2023-04-28T17:20:20.730Z,101130.00
2023-04-28T17:22:48.899Z,101126.06
2023-04-28T17:25:17.413Z,101125.16
2023-04-28T17:27:44.934Z,101125.91
2023-04-28T17:30:12.478Z,101127.72
2023-04-28T17:32:39.922Z,101124.16
2023-04-28T17:35:09.295Z,101135.16
2023-04-28T17:37:37.691Z,101132.72
2023-04-28T17:40:05.039Z,101121.19
2023-04-28T17:42:34.896Z,101121.34
2023-04-28T17:45:06.502Z,101124.19
2023-04-28T17:47:39.080Z,101122.38
2023-04-28T17:50:06.944Z,101124.13
2023-04-28T17:52:34.461Z,101126.78
2023-04-28T17:55:03.934Z,101126.53
2023-04-28T17:57:30.946Z,101131.22
2023-04-28T18:00:00.760Z,101139.06
2023-04-28T18:02:36.638Z,101127.31
2023-04-28T18:05:05.077Z,101131.72
2023-04-28T18:07:39.835Z,101133.59
2023-04-28T18:10:20.800Z,101137.81
2023-04-28T18:12:52.290Z,101130.94
2023-04-28T18:15:23.742Z,101129.91
2023-04-28T18:17:55.603Z,101128.41
2023-04-28T18:20:23.419Z,101126.38
2023-04-28T18:22:50.462Z,101132.81
2023-04-28T18:25:18.074Z,101132.13
2023-04-28T18:27:48.432Z,101132.16
2023-04-28T18:30:15.412Z,101128.88
2023-04-28T18:32:42.683Z,101127.69
2023-04-28T18:35:09.651Z,101128.13
2023-04-28T18:37:38.910Z,101128.66
2023-04-28T18:40:06.910Z,101118.78
2023-04-28T18:42:40.150Z,101123.38
2023-04-28T18:45:15.272Z,101132.53
2023-04-28T18:47:42.625Z,101131.63
2023-04-28T18:50:09.842Z,101140.00
2023-04-28T18:52:36.825Z,101141.13
2023-04-28T18:55:06.752Z,101144.25
2023-04-28T18:57:34.229Z,101153.25
2023-04-28T19:00:02.249Z,101152.78
2023-04-28T19:02:32.436Z,101155.50
2023-04-28T19:05:03.833Z,101161.56
2023-04-28T19:07:32.495Z,101169.06
2023-04-28T19:09:59.777Z,101170.09
2023-04-28T19:12:26.887Z,101162.59
2023-04-28T19:14:53.900Z,101162.28
2023-04-28T19:17:24.517Z,101148.47
2023-04-28T19:19:55.539Z,101146.41
2023-04-28T19:22:40.517Z,101160.75
2023-04-28T19:25:07.989Z,101148.28
2023-04-28T19:27:40.143Z,101157.28
2023-04-28T19:30:13.038Z,101158.63
2023-04-28T19:32:41.746Z,101155.97
2023-04-28T19:35:11.756Z,101160.75
2023-04-28T19:37:39.116Z,101163.84
2023-04-28T19:40:08.109Z,101165.81
2023-04-28T19:42:35.916Z,101175.66
2023-04-28T19:45:05.860Z,101175.22
2023-04-28T19:47:35.838Z,101178.03
2023-04-28T19:50:02.869Z,101178.03
2023-04-28T19:52:30.332Z,101188.38
2023-04-28T19:54:57.620Z,101162.75
2023-04-28T19:57:27.464Z,101159.09
2023-04-28T19:59:56.859Z,101174.25
2023-04-28T20:02:24.220Z,101169.97
2023-04-28T20:04:52.315Z,101172.63
2023-04-28T20:07:19.353Z,101179.03
2023-04-28T20:09:47.237Z,101179.31
2023-04-28T20:12:15.785Z,101172.28
2023-04-28T20:14:45.030Z,101171.84
2023-04-28T20:17:12.104Z,101173.88
2023-04-28T20:19:39.268Z,101171.06
2023-04-28T20:22:10.267Z,101177.03
2023-04-28T20:24:37.748Z,101173.72
2023-04-28T20:27:09.998Z,101164.94
2023-04-28T20:29:37.525Z,101172.84
2023-04-28T20:32:05.223Z,101169.41
2023-04-28T20:34:32.611Z,101163.66
2023-04-28T20:37:00.137Z,101159.75
2023-04-28T20:39:27.459Z,101150.09
2023-04-28T20:41:54.373Z,101152.25
2023-04-28T20:44:21.429Z,101156.09
2023-04-28T20:46:55.476Z,101146.28
2023-04-28T20:49:31.604Z,101147.22
2023-04-28T20:52:12.580Z,101139.91
2023-04-28T20:54:40.522Z,101154.53
2023-04-28T20:57:09.591Z,101146.59
2023-04-28T20:59:37.447Z,101145.59
2023-04-28T21:02:05.981Z,101148.13
2023-04-28T21:04:34.055Z,101138.19
2023-04-28T21:07:01.187Z,101145.13
2023-04-28T21:09:30.441Z,101137.28
2023-04-28T21:11:57.533Z,101128.66
2023-04-28T21:14:24.551Z,101130.50
2023-04-28T21:16:52.525Z,101129.50
2023-04-28T21:19:20.832Z,101130.50
2023-04-28T21:21:48.082Z,101116.41
2023-04-28T21:24:15.138Z,101111.09
2023-04-28T21:26:42.548Z,101113.16
2023-04-28T21:29:09.526Z,101110.78
2023-04-28T21:31:36.532Z,101123.09
2023-04-28T21:34:08.565Z,101129.22
2023-04-28T21:36:36.310Z,101120.56
2023-04-28T21:39:05.142Z,101120.22
2023-04-28T21:41:32.447Z,101125.19
2023-04-28T21:43:59.917Z,101115.06
2023-04-28T21:46:32.283Z,101117.50
2023-04-28T21:49:00.407Z,101116.22
2023-04-28T21:51:28.166Z,101112.50
2023-04-28T21:53:55.264Z,101109.41
2023-04-28T21:56:22.314Z,101116.28
2023-04-28T21:58:49.460Z,101105.38
2023-04-28T22:01:18.155Z,101105.13
2023-04-28T22:03:50.322Z,101122.50
2023-04-28T22:06:18.253Z,101120.00
2023-04-28T22:08:48.617Z,101114.38
2023-04-28T22:11:16.580Z,101112.50
2023-04-28T22:13:43.528Z,101107.38
2023-04-28T22:16:17.657Z,101108.09
2023-04-28T22:18:47.043Z,101107.19
2023-04-28T22:21:15.525Z,101099.41
2023-04-28T22:23:42.469Z,101104.53
2023-04-28T22:26:09.452Z,101100.75
2023-04-28T22:28:40.425Z,101096.00
2023-04-28T22:31:07.558Z,101098.81
2023-04-28T22:33:39.003Z,101103.22
2023-04-28T22:36:06.309Z,101107.19
2023-04-28T22:38:42.764Z,101120.28
2023-04-28T22:41:10.038Z,101120.84
2023-04-28T22:43:40.180Z,101117.88
2023-04-28T22:46:08.698Z,101127.88
2023-04-28T22:48:43.688Z,101124.41
2023-04-28T22:51:11.552Z,101124.06
2023-04-28T22:53:38.593Z,101123.31
2023-04-28T22:56:11.527Z,101124.91
2023-04-28T22:58:38.542Z,101129.84
2023-04-28T23:01:05.926Z,101131.03
2023-04-28T23:03:41.620Z,101114.88
2023-04-28T23:06:12.210Z,101110.47
2023-04-28T23:08:39.086Z,101114.94
2023-04-28T23:11:10.293Z,101117.25
2023-04-28T23:13:38.030Z,101108.41
2023-04-28T23:16:08.187Z,101118.75
2023-04-28T23:18:35.392Z,101118.59
2023-04-28T23:21:02.594Z,101120.50
2023-04-28T23:23:31.828Z,101119.69
2023-04-28T23:26:06.496Z,101116.22
2023-04-28T23:28:33.456Z,101120.66
2023-04-28T23:31:00.390Z,101117.94
2023-04-28T23:33:28.028Z,101124.97
2023-04-28T23:35:55.043Z,101123.44
2023-04-28T23:38:21.916Z,101117.88
2023-04-28T23:40:52.082Z,101121.94
2023-04-28T23:43:19.318Z,101123.00
2023-04-28T23:45:46.417Z,101114.94
2023-04-28T23:48:13.548Z,101111.75
2023-04-28T23:50:43.032Z,101112.84
2023-04-28T23:53:10.152Z,101103.06
2023-04-28T23:55:37.205Z,101108.53
2023-04-28T23:58:04.371Z,101107.09
